createdAt,value
2018-02-25T00:01:39.563Z,102742.12
2018-02-25T00:04:42.787Z,102739.96
2018-02-25T00:07:46.034Z,102745.13
2018-02-25T00:10:49.183Z,102757.71
2018-02-25T00:13:53.661Z,102760.05
2018-02-25T00:16:56.950Z,102757.50
2018-02-25T00:20:00.249Z,102768.42
2018-02-25T00:23:03.551Z,102765.53
2018-02-25T00:26:06.864Z,102771.36
2018-02-25T00:29:10.141Z,102781.65
2018-02-25T00:32:13.366Z,102778.00
2018-02-25T00:35:17.064Z,102777.40
2018-02-25T00:38:21.131Z,102783.97
2018-02-25T00:41:24.350Z,102789.40
2018-02-25T00:44:27.498Z,102780.46
2018-02-25T00:47:30.736Z,102800.59
2018-02-25T00:50:33.888Z,102809.64
2018-02-25T00:53:37.126Z,102807.65
2018-02-25T00:56:40.471Z,102803.54
2018-02-25T00:59:43.665Z,102793.81
2018-02-25T01:02:46.938Z,102795.78
2018-02-25T01:05:50.705Z,102794.43
2018-02-25T01:08:54.083Z,102787.55
2018-02-25T01:11:57.328Z,102792.34
2018-02-25T01:15:00.604Z,102785.95
2018-02-25T01:18:03.827Z,102792.80
2018-02-25T01:21:07.125Z,102783.86
2018-02-25T01:24:10.433Z,102776.51
2018-02-25T01:27:13.657Z,102779.75
2018-02-25T01:30:16.926Z,102776.94
2018-02-25T01:33:20.385Z,102774.73
2018-02-25T01:36:23.608Z,102780.95
2018-02-25T01:39:26.925Z,102772.16
2018-02-25T01:42:30.204Z,102776.05
2018-02-25T01:45:33.415Z,102772.68
2018-02-25T01:48:36.699Z,102791.73
2018-02-25T01:51:39.913Z,102789.73
2018-02-25T01:54:43.206Z,102794.82
2018-02-25T01:57:46.480Z,102792.86
2018-02-25T02:00:49.688Z,102795.59
2018-02-25T02:03:52.951Z,102798.65
2018-02-25T02:06:56.272Z,102805.67
2018-02-25T02:09:59.435Z,102807.22
2018-02-25T02:13:02.657Z,102807.17
2018-02-25T02:16:05.872Z,102813.54
2018-02-25T02:19:09.129Z,102811.57
2018-02-25T02:22:12.423Z,102812.13
2018-02-25T02:25:15.647Z,102810.73
2018-02-25T02:28:18.952Z,102810.43
2018-02-25T02:31:22.186Z,102798.25
2018-02-25T02:34:25.429Z,102807.47
2018-02-25T02:37:28.757Z,102808.46
2018-02-25T02:40:32.080Z,102807.78
2018-02-25T02:43:35.338Z,102799.84
2018-02-25T02:46:38.579Z,102801.04
2018-02-25T02:49:41.757Z,102807.83
2018-02-25T02:52:45.024Z,102807.21
2018-02-25T02:55:48.340Z,102805.62
2018-02-25T02:58:51.555Z,102805.42
2018-02-25T03:01:54.881Z,102801.46
2018-02-25T03:04:58.007Z,102810.93
2018-02-25T03:08:01.239Z,102808.82
2018-02-25T03:11:04.528Z,102819.71
2018-02-25T03:14:07.796Z,102819.21
2018-02-25T03:17:11.043Z,102821.43
2018-02-25T03:20:14.287Z,102820.86
2018-02-25T03:23:17.759Z,102825.69
2018-02-25T03:26:20.994Z,102820.60
2018-02-25T03:29:24.302Z,102825.21
2018-02-25T03:32:27.539Z,102821.77
2018-02-25T03:35:30.969Z,102825.92
2018-02-25T03:38:34.185Z,102817.66
2018-02-25T03:41:37.484Z,102817.20
2018-02-25T03:44:40.780Z,102820.69
2018-02-25T03:47:44.088Z,102819.73
2018-02-25T03:50:47.326Z,102820.63
2018-02-25T03:53:50.576Z,102827.93
2018-02-25T03:56:54.150Z,102825.42
2018-02-25T03:59:57.370Z,102831.34
2018-02-25T04:03:00.713Z,102824.70
2018-02-25T04:06:03.966Z,102819.26
2018-02-25T04:09:07.794Z,102829.89
2018-02-25T04:12:11.067Z,102837.83
2018-02-25T04:15:14.494Z,102829.70
2018-02-25T04:18:17.775Z,102832.22
2018-02-25T04:21:21.081Z,102830.96
2018-02-25T04:24:24.361Z,102832.92
2018-02-25T04:27:27.658Z,102845.86
2018-02-25T04:30:30.959Z,102840.59
2018-02-25T04:33:34.207Z,102847.87
2018-02-25T04:36:37.451Z,102851.45
2018-02-25T04:39:40.758Z,102847.17
2018-02-25T04:42:44.267Z,102848.74
2018-02-25T04:45:47.687Z,102847.37
2018-02-25T04:48:50.954Z,102846.55
2018-02-25T04:51:54.244Z,102857.94
2018-02-25T04:54:57.507Z,102865.25
2018-02-25T04:58:00.754Z,102873.17
2018-02-25T05:01:04.105Z,102876.40
2018-02-25T05:04:07.330Z,102876.38
2018-02-25T05:07:10.630Z,102881.71
2018-02-25T05:10:14.018Z,102874.34
2018-02-25T05:13:17.268Z,102882.04
2018-02-25T05:16:20.455Z,102883.16
2018-02-25T05:19:23.673Z,102882.10
2018-02-25T05:22:26.945Z,102882.04
2018-02-25T05:25:30.208Z,102881.27
2018-02-25T05:28:33.456Z,102887.18
2018-02-25T05:31:36.715Z,102882.88
2018-02-25T05:34:39.942Z,102886.03
2018-02-25T05:37:43.263Z,102884.92
2018-02-25T05:40:46.418Z,102886.50
2018-02-25T05:43:49.688Z,102884.34
2018-02-25T05:46:52.909Z,102892.34
2018-02-25T05:49:56.190Z,102900.69
2018-02-25T05:53:00.529Z,102896.71
2018-02-25T05:56:03.770Z,102903.01
2018-02-25T05:59:06.942Z,102911.94
2018-02-25T06:02:10.148Z,102909.31
2018-02-25T06:05:13.441Z,102910.03
2018-02-25T06:08:16.732Z,102921.73
2018-02-25T06:11:19.922Z,102929.71
2018-02-25T06:14:23.182Z,102932.60
2018-02-25T06:17:26.421Z,102932.41
2018-02-25T06:20:29.704Z,102942.33
2018-02-25T06:23:32.993Z,102950.51
2018-02-25T06:26:36.301Z,102955.84
2018-02-25T06:29:39.818Z,102953.31
2018-02-25T06:32:43.181Z,102962.13
2018-02-25T06:35:46.377Z,102960.04
2018-02-25T06:38:49.517Z,102960.46
2018-02-25T06:41:52.809Z,102961.98
2018-02-25T06:44:56.059Z,102971.62
2018-02-25T06:47:59.353Z,102972.50
2018-02-25T06:51:02.549Z,102974.46
2018-02-25T06:54:05.790Z,102979.16
2018-02-25T06:57:09.058Z,102990.33
2018-02-25T07:00:12.301Z,102980.00
2018-02-25T07:03:15.622Z,102983.11
2018-02-25T07:06:18.879Z,102984.38
2018-02-25T07:09:22.463Z,102986.28
2018-02-25T07:12:25.726Z,102986.24
2018-02-25T07:15:29.026Z,102985.25
2018-02-25T07:18:32.335Z,102989.60
2018-02-25T07:21:35.613Z,102986.31
2018-02-25T07:24:38.950Z,102982.19
2018-02-25T07:27:42.218Z,102977.88
2018-02-25T07:30:45.450Z,102980.99
2018-02-25T07:33:48.783Z,102983.86
2018-02-25T07:36:51.947Z,102974.93
2018-02-25T07:39:55.180Z,102977.98
2018-02-25T07:42:58.418Z,102973.61
2018-02-25T07:46:01.638Z,102966.77
2018-02-25T07:49:05.275Z,102971.12
2018-02-25T07:52:08.607Z,102970.82
2018-02-25T07:55:11.857Z,102971.65
2018-02-25T07:58:15.257Z,102967.40
2018-02-25T08:01:18.527Z,102965.19
2018-02-25T08:04:21.810Z,102971.90
2018-02-25T08:07:25.161Z,102977.39
2018-02-25T08:10:28.412Z,102971.05
2018-02-25T08:13:31.673Z,102971.83
2018-02-25T08:16:34.884Z,102974.46
2018-02-25T08:19:38.118Z,102972.00
2018-02-25T08:22:41.390Z,102968.88
2018-02-25T08:25:44.891Z,102973.72
2018-02-25T08:28:48.185Z,102974.14
2018-02-25T08:31:51.487Z,102970.06
2018-02-25T08:34:54.794Z,102973.28
2018-02-25T08:37:58.069Z,102976.88
2018-02-25T08:41:01.426Z,102966.63
2018-02-25T08:44:04.617Z,102968.47
2018-02-25T08:47:07.951Z,102963.56
2018-02-25T08:50:11.123Z,102967.80
2018-02-25T08:53:14.373Z,102954.43
2018-02-25T08:56:17.801Z,102951.14
2018-02-25T08:59:21.001Z,102941.43
2018-02-25T09:02:24.260Z,102946.68
2018-02-25T09:05:27.553Z,102934.42
2018-02-25T09:08:30.959Z,102940.82
2018-02-25T09:11:34.312Z,102943.88
2018-02-25T09:14:37.562Z,102943.20
2018-02-25T09:17:40.859Z,102936.39
2018-02-25T09:20:44.173Z,102937.10
2018-02-25T09:23:47.485Z,102944.09
2018-02-25T09:26:50.739Z,102937.19
2018-02-25T09:29:53.961Z,102944.85
2018-02-25T09:32:57.248Z,102930.23
2018-02-25T09:36:00.888Z,102926.44
2018-02-25T09:39:04.370Z,102918.88
2018-02-25T09:42:07.630Z,102918.13
2018-02-25T09:45:10.833Z,102926.05
2018-02-25T09:48:14.760Z,102914.34
2018-02-25T09:51:17.977Z,102919.50
2018-02-25T09:54:21.259Z,102915.80
2018-02-25T09:57:24.568Z,102920.29
2018-02-25T10:00:27.764Z,102912.79
2018-02-25T10:03:30.958Z,102916.27
2018-02-25T10:06:34.219Z,102915.80
2018-02-25T10:09:37.434Z,102918.10
2018-02-25T10:12:40.686Z,102908.56
2018-02-25T10:15:43.867Z,102916.47
2018-02-25T10:18:47.142Z,102911.83
2018-02-25T10:21:50.418Z,102916.41
2018-02-25T10:24:53.805Z,102911.88
2018-02-25T10:27:57.024Z,102909.77
2018-02-25T10:31:00.436Z,102912.52
2018-02-25T10:34:03.754Z,102910.03
2018-02-25T10:37:07.030Z,102900.12
2018-02-25T10:40:10.306Z,102911.78
2018-02-25T10:43:13.621Z,102905.47
2018-02-25T10:46:16.812Z,102901.02
2018-02-25T10:49:20.106Z,102895.29
2018-02-25T10:52:23.355Z,102888.13
2018-02-25T10:55:26.684Z,102895.98
2018-02-25T10:58:29.915Z,102891.01
2018-02-25T11:01:33.130Z,102887.97
2018-02-25T11:04:36.367Z,102885.90
2018-02-25T11:07:39.691Z,102877.66
2018-02-25T11:10:43.135Z,102874.94
2018-02-25T11:13:46.449Z,102864.68
2018-02-25T11:16:49.689Z,102860.25
2018-02-25T11:19:53.012Z,102859.43
2018-02-25T11:22:56.488Z,102856.09
2018-02-25T11:25:59.704Z,102848.77
2018-02-25T11:29:02.927Z,102849.31
2018-02-25T11:32:06.168Z,102850.87
2018-02-25T11:35:09.419Z,102845.63
2018-02-25T11:38:12.807Z,102846.00
2018-02-25T11:41:16.164Z,102832.98
2018-02-25T11:44:19.434Z,102827.79
2018-02-25T11:47:22.728Z,102821.77
2018-02-25T11:50:26.027Z,102824.72
2018-02-25T11:53:29.325Z,102818.50
2018-02-25T11:56:32.710Z,102810.55
2018-02-25T11:59:35.876Z,102800.99
2018-02-25T12:02:39.153Z,102801.92
2018-02-25T12:05:42.416Z,102805.68
2018-02-25T12:08:45.714Z,102806.35
2018-02-25T12:11:49.025Z,102803.46
2018-02-25T12:14:59.262Z,102804.51
2018-02-25T12:17:55.516Z,102799.19
2018-02-25T12:20:58.901Z,102803.26
2018-02-25T12:24:02.185Z,102798.37
2018-02-25T12:27:05.494Z,102796.48
2018-02-25T12:30:08.882Z,102788.01
2018-02-25T12:33:12.135Z,102783.28
2018-02-25T12:36:15.479Z,102783.88
2018-02-25T12:39:18.786Z,102775.99
2018-02-25T12:42:23.108Z,102775.49
2018-02-25T12:45:26.350Z,102768.09
2018-02-25T12:48:29.965Z,102775.26
2018-02-25T12:51:33.192Z,102769.92
2018-02-25T12:54:36.502Z,102770.48
2018-02-25T12:57:39.763Z,102768.41
2018-02-25T13:00:43.478Z,102757.66
2018-02-25T13:03:46.628Z,102760.22
2018-02-25T13:06:50.070Z,102751.30
2018-02-25T13:09:53.312Z,102749.54
2018-02-25T13:12:56.536Z,102749.67
2018-02-25T13:15:59.865Z,102751.48
2018-02-25T13:19:03.118Z,102743.11
2018-02-25T13:22:06.393Z,102743.06
2018-02-25T13:25:09.785Z,102742.54
2018-02-25T13:28:13.008Z,102731.87
2018-02-25T13:31:16.218Z,102730.97
2018-02-25T13:34:19.514Z,102727.45
2018-02-25T13:37:22.792Z,102730.18
2018-02-25T13:40:26.087Z,102726.32
2018-02-25T13:43:29.387Z,102724.56
2018-02-25T13:46:32.690Z,102721.71
2018-02-25T13:49:35.973Z,102715.65
2018-02-25T13:52:39.274Z,102717.37
2018-02-25T13:55:44.219Z,102706.72
2018-02-25T13:58:47.570Z,102702.57
2018-02-25T14:01:50.900Z,102696.89
2018-02-25T14:04:54.206Z,102699.24
2018-02-25T14:07:57.462Z,102695.91
2018-02-25T14:11:00.802Z,102694.12
2018-02-25T14:14:03.998Z,102694.62
2018-02-25T14:17:07.166Z,102688.51
2018-02-25T14:20:10.473Z,102687.23
2018-02-25T14:23:13.889Z,102691.03
2018-02-25T14:26:17.253Z,102687.48
2018-02-25T14:29:20.597Z,102691.42
2018-02-25T14:32:23.875Z,102684.93
2018-02-25T14:35:27.241Z,102684.18
2018-02-25T14:38:30.469Z,102681.19
2018-02-25T14:41:33.799Z,102685.78
2018-02-25T14:44:37.378Z,102683.40
2018-02-25T14:47:40.692Z,102677.58
2018-02-25T14:50:44.994Z,102682.15
2018-02-25T14:53:48.966Z,102682.33
2018-02-25T14:56:52.459Z,102671.52
2018-02-25T14:59:55.705Z,102688.72
2018-02-25T15:03:00.417Z,102683.50
2018-02-25T15:06:03.686Z,102678.79
2018-02-25T15:09:06.931Z,102673.62
2018-02-25T15:12:10.156Z,102678.41
2018-02-25T15:15:13.441Z,102673.03
2018-02-25T15:18:16.724Z,102679.53
2018-02-25T15:21:19.890Z,102684.76
2018-02-25T15:24:23.217Z,102678.09
2018-02-25T15:27:26.433Z,102678.05
2018-02-25T15:30:29.674Z,102676.51
2018-02-25T15:33:32.847Z,102673.22
2018-02-25T15:36:36.114Z,102669.01
2018-02-25T15:39:39.317Z,102663.66
2018-02-25T15:42:43.474Z,102666.64
2018-02-25T15:45:46.636Z,102667.23
2018-02-25T15:48:49.795Z,102661.24
2018-02-25T15:51:53.074Z,102672.01
2018-02-25T15:54:56.357Z,102670.47
2018-02-25T15:57:59.593Z,102674.83
2018-02-25T16:01:02.886Z,102671.31
2018-02-25T16:04:06.190Z,102678.40
2018-02-25T16:07:09.451Z,102685.36
2018-02-25T16:10:12.718Z,102687.01
2018-02-25T16:13:16.011Z,102688.38
2018-02-25T16:16:19.258Z,102686.42
2018-02-25T16:19:22.593Z,102695.95
2018-02-25T16:22:25.865Z,102697.72
2018-02-25T16:25:29.145Z,102702.85
2018-02-25T16:28:32.520Z,102696.61
2018-02-25T16:31:35.878Z,102700.17
2018-02-25T16:34:39.078Z,102705.13
2018-02-25T16:37:42.304Z,102702.40
2018-02-25T16:40:46.734Z,102702.61
2018-02-25T16:43:49.899Z,102707.05
2018-02-25T16:46:53.674Z,102709.39
2018-02-25T16:49:56.985Z,102714.05
2018-02-25T16:53:00.223Z,102713.24
2018-02-25T16:56:03.525Z,102716.40
2018-02-25T16:59:06.771Z,102721.93
2018-02-25T17:02:10.153Z,102728.94
2018-02-25T17:05:13.491Z,102733.75
2018-02-25T17:08:16.842Z,102736.46
2018-02-25T17:11:20.029Z,102745.63
2018-02-25T17:14:23.197Z,102748.43
2018-02-25T17:17:26.418Z,102754.99
2018-02-25T17:20:30.031Z,102759.40
2018-02-25T17:23:33.246Z,102769.26
2018-02-25T17:26:36.550Z,102768.87
2018-02-25T17:29:39.864Z,102773.84
2018-02-25T17:32:43.138Z,102773.20
2018-02-25T17:35:46.779Z,102772.10
2018-02-25T17:38:50.034Z,102780.48
2018-02-25T17:41:53.997Z,102781.55
2018-02-25T17:44:57.251Z,102783.42
2018-02-25T17:48:00.564Z,102781.54
2018-02-25T17:51:03.831Z,102787.72
2018-02-25T17:54:07.061Z,102781.86
2018-02-25T17:57:10.297Z,102783.24
2018-02-25T18:00:13.606Z,102791.78
2018-02-25T18:03:16.862Z,102792.41
2018-02-25T18:06:20.146Z,102787.28
2018-02-25T18:09:23.384Z,102783.59
2018-02-25T18:12:26.805Z,102785.94
2018-02-25T18:15:30.174Z,102783.40
2018-02-25T18:18:33.364Z,102782.81
2018-02-25T18:21:36.705Z,102780.25
2018-02-25T18:24:39.890Z,102778.80
2018-02-25T18:27:43.153Z,102774.17
2018-02-25T18:30:46.463Z,102775.51
2018-02-25T18:33:49.637Z,102773.15
2018-02-25T18:36:52.878Z,102771.28
2018-02-25T18:39:56.129Z,102776.08
2018-02-25T18:42:59.364Z,102775.38
2018-02-25T18:46:02.613Z,102772.42
2018-02-25T18:49:06.017Z,102776.98
2018-02-25T18:52:09.363Z,102782.41
2018-02-25T18:55:12.674Z,102775.90
2018-02-25T18:58:15.919Z,102777.21
2018-02-25T19:01:19.197Z,102783.44
2018-02-25T19:04:22.510Z,102783.33
2018-02-25T19:07:25.813Z,102780.60
2018-02-25T19:10:29.106Z,102784.21
2018-02-25T19:13:32.393Z,102786.10
2018-02-25T19:16:35.682Z,102778.62
2018-02-25T19:19:38.981Z,102779.86
2018-02-25T19:22:42.309Z,102778.86
2018-02-25T19:25:45.970Z,102777.29
2018-02-25T19:28:49.550Z,102776.88
2018-02-25T19:31:52.777Z,102780.39
2018-02-25T19:34:56.114Z,102785.31
2018-02-25T19:39:02.542Z,102782.44
2018-02-25T19:42:09.850Z,102780.72
2018-02-25T19:45:13.145Z,102783.98
2018-02-25T19:48:16.489Z,102783.93
2018-02-25T19:51:19.791Z,102784.01
2018-02-25T19:54:23.254Z,102783.63
2018-02-25T19:57:26.577Z,102787.20
2018-02-25T20:00:29.862Z,102781.46
2018-02-25T20:03:33.155Z,102793.11
2018-02-25T20:06:36.352Z,102785.95
2018-02-25T20:09:39.574Z,102789.89
2018-02-25T20:12:42.864Z,102791.34
2018-02-25T20:15:46.298Z,102790.73
2018-02-25T20:18:49.547Z,102790.55
2018-02-25T20:21:53.002Z,102793.16
2018-02-25T20:24:56.357Z,102794.77
2018-02-25T20:27:59.649Z,102795.70
2018-02-25T20:31:02.974Z,102785.76
2018-02-25T20:34:06.262Z,102788.15
2018-02-25T20:37:09.550Z,102785.31
2018-02-25T20:40:12.939Z,102789.34
2018-02-25T20:43:16.189Z,102791.34
2018-02-25T20:46:19.420Z,102792.41
2018-02-25T20:49:22.722Z,102796.05
2018-02-25T20:52:26.076Z,102795.20
2018-02-25T20:55:29.317Z,102792.88
2018-02-25T20:58:32.635Z,102786.67
2018-02-25T21:01:35.913Z,102793.41
2018-02-25T21:04:39.215Z,102798.78
2018-02-25T21:07:42.507Z,102794.63
2018-02-25T21:10:45.937Z,102801.53
2018-02-25T21:13:49.161Z,102796.00
2018-02-25T21:16:52.389Z,102805.16
2018-02-25T21:19:55.714Z,102806.52
2018-02-25T21:22:58.980Z,102813.16
2018-02-25T21:26:02.271Z,102808.67
2018-02-25T21:29:05.584Z,102808.88
2018-02-25T21:32:08.818Z,102817.71
2018-02-25T21:35:11.990Z,102817.55
2018-02-25T21:38:15.322Z,102823.46
2018-02-25T21:41:18.566Z,102818.32
2018-02-25T21:44:21.866Z,102817.79
2018-02-25T21:47:25.285Z,102830.68
2018-02-25T21:50:28.550Z,102828.44
2018-02-25T21:53:35.954Z,102832.73
2018-02-25T21:56:43.522Z,102833.56
2018-02-25T22:00:22.654Z,102834.51
2018-02-25T22:03:35.114Z,102829.92
2018-02-25T22:06:38.373Z,102834.62
2018-02-25T22:09:41.675Z,102835.77
2018-02-25T22:12:44.959Z,102839.84
2018-02-25T22:15:48.258Z,102840.04
2018-02-25T22:18:51.393Z,102846.68
2018-02-25T22:21:54.682Z,102844.67
2018-02-25T22:24:57.991Z,102843.19
2018-02-25T22:28:01.248Z,102841.32
2018-02-25T22:31:04.381Z,102848.29
2018-02-25T22:34:07.654Z,102851.41
2018-02-25T22:37:10.973Z,102849.53
2018-02-25T22:40:14.225Z,102848.35
2018-02-25T22:43:17.573Z,102843.40
2018-02-25T22:46:20.799Z,102847.78
2018-02-25T22:49:24.046Z,102856.48
2018-02-25T22:52:27.283Z,102854.68
2018-02-25T22:55:30.760Z,102858.57
2018-02-25T22:58:33.974Z,102861.37
2018-02-25T23:01:37.191Z,102865.97
2018-02-25T23:04:40.468Z,102865.96
2018-02-25T23:07:43.742Z,102873.87
2018-02-25T23:10:47.085Z,102868.68
2018-02-25T23:13:50.342Z,102874.21
2018-02-25T23:16:53.625Z,102875.88
2018-02-25T23:19:56.838Z,102878.91
2018-02-25T23:23:00.123Z,102881.44
2018-02-25T23:26:03.413Z,102884.45
2018-02-25T23:29:06.634Z,102881.01
2018-02-25T23:32:10.186Z,102879.53
2018-02-25T23:35:13.361Z,102887.09
2018-02-25T23:38:16.646Z,102894.63
2018-02-25T23:41:19.900Z,102884.02
2018-02-25T23:44:23.217Z,102883.17
2018-02-25T23:47:26.517Z,102883.94
2018-02-25T23:50:29.813Z,102883.53
2018-02-25T23:53:33.092Z,102884.55
2018-02-25T23:56:36.443Z,102883.78
2018-02-25T23:59:39.693Z,102886.01
